createdAt,value
2019-03-08T00:00:39.147Z,982.02
2019-03-08T00:01:39.125Z,981.95
2019-03-08T00:02:39.107Z,981.96
2019-03-08T00:03:39.094Z,981.94
2019-03-08T00:04:39.083Z,982.01
2019-03-08T00:05:39.100Z,982.10
2019-03-08T00:06:39.061Z,982.00
2019-03-08T00:07:39.050Z,982.03
2019-03-08T00:08:39.041Z,982.07
2019-03-08T00:09:39.032Z,981.96
2019-03-08T00:10:39.050Z,981.94
2019-03-08T00:11:39.011Z,982.16
2019-03-08T00:12:39.003Z,982.15
2019-03-08T00:13:38.988Z,982.19
2019-03-08T00:14:38.971Z,982.38
2019-03-08T00:15:38.987Z,982.30
2019-03-08T00:16:38.951Z,982.36
2019-03-08T00:17:38.942Z,982.25
2019-03-08T00:18:38.932Z,982.16
2019-03-08T00:19:38.923Z,982.29
2019-03-08T00:20:38.937Z,982.35
2019-03-08T00:21:38.895Z,982.43
2019-03-08T00:22:38.898Z,982.41
2019-03-08T00:23:38.881Z,982.18
2019-03-08T00:24:38.865Z,982.32
2019-03-08T00:25:38.879Z,982.34
2019-03-08T00:26:38.840Z,982.41
2019-03-08T00:27:38.832Z,982.34
2019-03-08T00:28:38.826Z,982.58
2019-03-08T00:29:38.813Z,982.54
2019-03-08T00:30:38.827Z,982.25
2019-03-08T00:31:38.791Z,983.12
2019-03-08T00:32:38.786Z,982.41
2019-03-08T00:33:38.766Z,982.31
2019-03-08T00:34:38.758Z,982.48
2019-03-08T00:35:38.771Z,982.55
2019-03-08T00:36:38.740Z,982.48
2019-03-08T00:37:38.724Z,982.61
2019-03-08T00:38:38.717Z,982.43
2019-03-08T00:39:38.700Z,982.54
2019-03-08T00:40:38.722Z,982.48
2019-03-08T00:41:38.684Z,982.55
2019-03-08T00:42:38.678Z,982.51
2019-03-08T00:43:38.663Z,982.60
2019-03-08T00:44:38.647Z,982.58
2019-03-08T00:45:38.659Z,982.61
2019-03-08T00:46:38.632Z,982.45
2019-03-08T00:47:38.618Z,982.52
2019-03-08T00:48:38.604Z,982.67
2019-03-08T00:49:38.593Z,982.81
2019-03-08T00:50:38.607Z,982.59
2019-03-08T00:51:38.575Z,982.70
2019-03-08T00:52:38.576Z,982.53
2019-03-08T00:53:38.559Z,982.73
2019-03-08T00:54:38.539Z,982.67
2019-03-08T00:55:38.556Z,982.75
2019-03-08T00:56:39.771Z,982.95
2019-03-08T00:57:38.511Z,982.83
2019-03-08T00:58:38.502Z,982.73
2019-03-08T00:59:38.487Z,982.66
2019-03-08T01:00:38.506Z,982.82
2019-03-08T01:01:38.464Z,982.58
2019-03-08T01:02:38.455Z,982.56
2019-03-08T01:03:38.452Z,982.65
2019-03-08T01:04:38.437Z,982.68
2019-03-08T01:05:38.457Z,982.66
2019-03-08T01:06:38.412Z,982.75
2019-03-08T01:07:38.404Z,982.68
2019-03-08T01:08:38.387Z,982.59
2019-03-08T01:09:38.392Z,982.72
2019-03-08T01:10:38.393Z,982.54
2019-03-08T01:11:38.370Z,982.66
2019-03-08T01:12:38.349Z,982.53
2019-03-08T01:13:38.338Z,982.35
2019-03-08T01:14:38.326Z,982.54
2019-03-08T01:15:38.338Z,982.76
2019-03-08T01:16:38.356Z,982.64
2019-03-08T01:17:38.294Z,982.82
2019-03-08T01:18:38.287Z,982.66
2019-03-08T01:19:38.273Z,982.68
2019-03-08T01:20:38.285Z,982.75
2019-03-08T01:21:38.249Z,982.75
2019-03-08T01:22:38.239Z,982.63
2019-03-08T01:23:38.228Z,982.67
2019-03-08T01:24:38.215Z,982.70
2019-03-08T01:25:38.251Z,982.69
2019-03-08T01:26:38.196Z,982.89
2019-03-08T01:27:38.186Z,982.79
2019-03-08T01:28:38.171Z,982.65
2019-03-08T01:29:38.166Z,982.79
2019-03-08T01:30:38.184Z,982.51
2019-03-08T01:31:38.139Z,982.86
2019-03-08T01:32:38.132Z,982.84
2019-03-08T01:33:38.122Z,982.85
2019-03-08T01:34:38.109Z,982.79
2019-03-08T01:35:38.121Z,982.57
2019-03-08T01:36:38.092Z,982.66
2019-03-08T01:37:38.081Z,982.88
2019-03-08T01:38:38.069Z,982.91
2019-03-08T01:39:38.056Z,982.85
2019-03-08T01:40:38.082Z,982.84
2019-03-08T01:41:38.045Z,982.95
2019-03-08T01:42:38.032Z,982.88
2019-03-08T01:43:38.012Z,982.90
2019-03-08T01:44:38.003Z,982.78
2019-03-08T01:45:37.992Z,982.97
2019-03-08T01:46:38.005Z,983.18
2019-03-08T01:47:37.968Z,983.07
2019-03-08T01:48:37.964Z,982.96
2019-03-08T01:49:37.949Z,983.03
2019-03-08T01:50:37.936Z,983.30
2019-03-08T01:51:37.957Z,983.04
2019-03-08T01:52:37.916Z,983.05
2019-03-08T01:53:37.906Z,983.38
2019-03-08T01:54:37.896Z,983.02
2019-03-08T01:55:37.898Z,983.51
2019-03-08T01:56:37.917Z,983.28
2019-03-08T01:57:37.861Z,983.36
2019-03-08T01:58:37.853Z,983.27
2019-03-08T01:59:37.843Z,983.27
2019-03-08T02:00:37.829Z,983.37
2019-03-08T02:01:37.852Z,983.41
2019-03-08T02:02:37.812Z,983.37
2019-03-08T02:03:37.795Z,983.42
2019-03-08T02:04:37.787Z,983.28
2019-03-08T02:05:37.776Z,983.39
2019-03-08T02:06:37.801Z,983.19
2019-03-08T02:07:37.754Z,983.34
2019-03-08T02:08:37.743Z,983.35
2019-03-08T02:09:37.733Z,983.35
2019-03-08T02:10:37.719Z,983.05
2019-03-08T02:11:37.741Z,983.38
2019-03-08T02:12:37.699Z,983.41
2019-03-08T02:13:37.687Z,983.38
2019-03-08T02:14:37.681Z,983.53
2019-03-08T02:15:37.676Z,983.45
2019-03-08T02:16:37.679Z,983.28
2019-03-08T02:17:37.655Z,983.70
2019-03-08T02:18:37.645Z,983.47
2019-03-08T02:19:37.630Z,983.42
2019-03-08T02:20:37.642Z,983.46
2019-03-08T02:21:37.628Z,983.30
2019-03-08T02:22:37.594Z,983.57
2019-03-08T02:23:37.580Z,983.58
2019-03-08T02:24:37.574Z,983.51
2019-03-08T02:25:37.561Z,983.64
2019-03-08T02:26:37.575Z,983.50
2019-03-08T02:27:37.539Z,983.54
2019-03-08T02:28:37.530Z,983.58
2019-03-08T02:29:39.118Z,983.50
2019-03-08T02:30:37.522Z,983.50
2019-03-08T02:31:37.521Z,983.48
2019-03-08T02:32:37.483Z,983.83
2019-03-08T02:33:37.489Z,983.60
2019-03-08T02:34:37.464Z,983.59
2019-03-08T02:35:37.458Z,983.65
2019-03-08T02:36:37.467Z,983.60
2019-03-08T02:37:37.441Z,983.62
2019-03-08T02:38:37.424Z,983.66
2019-03-08T02:39:37.516Z,983.68
2019-03-08T02:40:37.409Z,983.65
2019-03-08T02:41:37.527Z,983.74
2019-03-08T02:42:37.457Z,983.71
2019-03-08T02:43:37.388Z,983.73
2019-03-08T02:44:37.359Z,983.73
2019-03-08T02:45:37.349Z,983.82
2019-03-08T02:46:37.355Z,983.88
2019-03-08T02:47:37.323Z,983.97
2019-03-08T02:48:37.312Z,983.91
2019-03-08T02:49:37.302Z,983.72
2019-03-08T02:50:37.291Z,984.08
2019-03-08T02:51:37.305Z,983.87
2019-03-08T02:52:37.272Z,983.93
2019-03-08T02:53:37.260Z,984.05
2019-03-08T02:54:37.251Z,984.02
2019-03-08T02:55:37.241Z,984.01
2019-03-08T02:56:37.250Z,984.13
2019-03-08T02:57:37.216Z,984.14
2019-03-08T02:58:37.203Z,984.36
2019-03-08T02:59:37.193Z,984.35
2019-03-08T03:00:37.192Z,984.31
2019-03-08T03:01:37.200Z,984.24
2019-03-08T03:02:37.160Z,984.28
2019-03-08T03:03:37.151Z,984.09
2019-03-08T03:04:37.139Z,984.12
2019-03-08T03:05:37.120Z,984.25
2019-03-08T03:06:37.155Z,984.30
2019-03-08T03:07:37.114Z,984.20
2019-03-08T03:08:37.100Z,984.31
2019-03-08T03:09:37.086Z,984.31
2019-03-08T03:10:37.077Z,984.24
2019-03-08T03:11:37.094Z,984.30
2019-03-08T03:12:37.057Z,984.43
2019-03-08T03:13:37.043Z,984.26
2019-03-08T03:14:37.033Z,984.41
2019-03-08T03:15:37.028Z,984.33
2019-03-08T03:16:37.036Z,984.40
2019-03-08T03:17:36.999Z,984.34
2019-03-08T03:18:36.992Z,984.30
2019-03-08T03:19:36.988Z,984.47
2019-03-08T03:20:36.966Z,984.44
2019-03-08T03:21:36.985Z,984.37
2019-03-08T03:22:36.956Z,984.59
2019-03-08T03:23:36.942Z,984.41
2019-03-08T03:24:36.933Z,984.55
2019-03-08T03:25:36.915Z,984.65
2019-03-08T03:26:36.931Z,984.42
2019-03-08T03:27:36.899Z,984.68
2019-03-08T03:28:36.884Z,984.58
2019-03-08T03:29:36.872Z,984.58
2019-03-08T03:30:36.861Z,984.67
2019-03-08T03:31:36.896Z,984.55
2019-03-08T03:32:36.844Z,984.63
2019-03-08T03:33:36.836Z,984.46
2019-03-08T03:34:36.830Z,984.84
2019-03-08T03:35:36.811Z,984.74
2019-03-08T03:36:36.823Z,984.72
2019-03-08T03:37:36.787Z,984.77
2019-03-08T03:38:36.777Z,984.84
2019-03-08T03:39:36.768Z,984.91
2019-03-08T03:40:36.756Z,984.95
2019-03-08T03:41:36.768Z,984.68
2019-03-08T03:42:36.737Z,984.88
2019-03-08T03:43:36.723Z,984.86
2019-03-08T03:44:36.715Z,984.90
2019-03-08T03:45:36.701Z,984.91
2019-03-08T03:46:36.736Z,984.88
2019-03-08T03:47:36.682Z,984.94
2019-03-08T03:48:36.671Z,984.99
2019-03-08T03:49:36.657Z,984.90
2019-03-08T03:50:36.653Z,984.94
2019-03-08T03:51:36.635Z,985.02
2019-03-08T03:52:36.651Z,985.04
2019-03-08T03:53:36.613Z,985.05
2019-03-08T03:54:36.608Z,985.02
2019-03-08T03:55:36.595Z,985.05
2019-03-08T03:56:36.583Z,984.99
2019-03-08T03:57:36.596Z,985.14
2019-03-08T03:58:36.569Z,985.19
2019-03-08T03:59:36.552Z,985.19
2019-03-08T04:00:36.539Z,985.22
2019-03-08T04:01:36.535Z,985.30
2019-03-08T04:02:36.545Z,985.18
2019-03-08T04:03:36.507Z,985.23
2019-03-08T04:04:36.498Z,985.26
2019-03-08T04:05:36.489Z,985.39
2019-03-08T04:06:36.945Z,985.34
2019-03-08T04:07:36.498Z,985.28
2019-03-08T04:08:36.455Z,985.33
2019-03-08T04:09:36.443Z,985.41
2019-03-08T04:10:36.433Z,985.36
2019-03-08T04:11:36.420Z,985.44
2019-03-08T04:12:36.435Z,985.33
2019-03-08T04:13:36.406Z,985.50
2019-03-08T04:14:36.389Z,985.58
2019-03-08T04:15:36.381Z,985.56
2019-03-08T04:16:36.369Z,985.62
2019-03-08T04:17:36.384Z,985.59
2019-03-08T04:18:36.363Z,985.68
2019-03-08T04:19:36.336Z,985.76
2019-03-08T04:20:36.322Z,985.63
2019-03-08T04:21:36.319Z,985.75
2019-03-08T04:22:36.327Z,985.78
2019-03-08T04:23:36.294Z,985.84
2019-03-08T04:24:36.280Z,985.87
2019-03-08T04:25:36.274Z,985.88
2019-03-08T04:26:36.262Z,985.82
2019-03-08T04:27:36.279Z,985.92
2019-03-08T04:28:36.241Z,985.97
2019-03-08T04:29:36.233Z,986.02
2019-03-08T04:30:36.220Z,985.96
2019-03-08T04:31:36.213Z,985.98
2019-03-08T04:32:36.219Z,986.10
2019-03-08T04:33:36.187Z,986.01
2019-03-08T04:34:36.177Z,985.99
2019-03-08T04:35:36.164Z,985.71
2019-03-08T04:36:36.155Z,985.86
2019-03-08T04:37:36.166Z,986.08
2019-03-08T04:38:36.133Z,986.05
2019-03-08T04:39:36.120Z,986.16
2019-03-08T04:40:36.111Z,985.88
2019-03-08T04:41:36.099Z,986.04
2019-03-08T04:42:36.122Z,986.13
2019-03-08T04:43:36.095Z,986.12
2019-03-08T04:44:36.071Z,986.22
2019-03-08T04:45:36.057Z,986.19
2019-03-08T04:46:36.043Z,986.21
2019-03-08T04:47:36.065Z,986.24
2019-03-08T04:48:36.025Z,986.18
2019-03-08T04:49:36.011Z,986.00
2019-03-08T04:50:36.009Z,986.34
2019-03-08T04:51:35.999Z,986.27
2019-03-08T04:52:36.013Z,986.21
2019-03-08T04:53:35.967Z,986.27
2019-03-08T04:54:35.960Z,986.33
2019-03-08T04:55:35.947Z,986.38
2019-03-08T04:56:35.936Z,986.34
2019-03-08T04:57:35.955Z,986.38
2019-03-08T04:58:35.915Z,986.35
2019-03-08T04:59:35.905Z,986.26
2019-03-08T05:00:35.899Z,986.40
2019-03-08T05:01:35.885Z,986.34
2019-03-08T05:02:35.896Z,986.37
2019-03-08T05:03:35.863Z,986.45
2019-03-08T05:04:35.851Z,986.41
2019-03-08T05:05:35.850Z,986.58
2019-03-08T05:06:35.833Z,986.42
2019-03-08T05:07:35.852Z,986.44
2019-03-08T05:08:35.821Z,986.42
2019-03-08T05:09:35.795Z,986.56
2019-03-08T05:10:35.792Z,986.41
2019-03-08T05:11:35.775Z,986.45
2019-03-08T05:12:35.808Z,986.57
2019-03-08T05:13:35.756Z,986.38
2019-03-08T05:14:35.747Z,986.46
2019-03-08T05:15:35.733Z,986.52
2019-03-08T05:16:35.726Z,986.57
2019-03-08T05:17:35.736Z,986.40
2019-03-08T05:18:35.699Z,986.47
2019-03-08T05:19:35.693Z,986.63
2019-03-08T05:20:35.680Z,986.57
2019-03-08T05:21:35.675Z,986.69
2019-03-08T05:22:35.684Z,986.68
2019-03-08T05:23:35.650Z,986.67
2019-03-08T05:24:35.635Z,986.70
2019-03-08T05:25:35.628Z,986.80
2019-03-08T05:26:35.617Z,986.68
2019-03-08T05:27:35.626Z,986.82
2019-03-08T05:28:35.596Z,986.84
2019-03-08T05:29:35.588Z,986.90
2019-03-08T05:30:35.579Z,986.77
2019-03-08T05:31:35.561Z,986.81
2019-03-08T05:32:35.576Z,986.91
2019-03-08T05:33:35.539Z,986.75
2019-03-08T05:34:35.532Z,986.86
2019-03-08T05:35:35.527Z,986.96
2019-03-08T05:36:35.809Z,987.01
2019-03-08T05:37:35.521Z,986.95
2019-03-08T05:38:35.487Z,987.04
2019-03-08T05:39:35.478Z,987.01
2019-03-08T05:40:35.465Z,986.93
2019-03-08T05:41:35.457Z,986.95
2019-03-08T05:42:35.473Z,987.04
2019-03-08T05:43:35.431Z,987.09
2019-03-08T05:44:35.419Z,987.09
2019-03-08T05:45:35.495Z,987.16
2019-03-08T05:46:35.405Z,987.22
2019-03-08T05:47:35.411Z,987.07
2019-03-08T05:48:35.381Z,987.12
2019-03-08T05:49:35.397Z,987.17
2019-03-08T05:50:35.355Z,987.20
2019-03-08T05:51:35.423Z,987.17
2019-03-08T05:52:35.369Z,987.23
2019-03-08T05:53:35.618Z,987.32
2019-03-08T05:54:35.320Z,987.29
2019-03-08T05:55:35.307Z,987.30
2019-03-08T05:56:35.320Z,987.33
2019-03-08T05:57:35.308Z,987.32
2019-03-08T05:58:35.276Z,987.50
2019-03-08T05:59:35.271Z,987.38
2019-03-08T06:00:35.586Z,987.43
2019-03-08T06:01:35.242Z,987.55
2019-03-08T06:02:35.256Z,987.57
2019-03-08T06:03:35.217Z,987.31
2019-03-08T06:04:35.209Z,987.63
2019-03-08T06:05:35.196Z,987.68
2019-03-08T06:06:35.188Z,987.75
2019-03-08T06:07:35.199Z,987.77
2019-03-08T06:08:35.172Z,987.88
2019-03-08T06:09:35.155Z,987.83
2019-03-08T06:10:35.148Z,987.72
2019-03-08T06:11:35.143Z,987.94
2019-03-08T06:12:35.152Z,987.92
2019-03-08T06:13:35.111Z,988.01
2019-03-08T06:14:35.102Z,987.86
2019-03-08T06:15:35.101Z,987.86
2019-03-08T06:16:35.076Z,987.98
2019-03-08T06:17:35.092Z,988.00
2019-03-08T06:18:35.057Z,987.86
2019-03-08T06:19:35.053Z,987.96
2019-03-08T06:20:35.037Z,988.03
2019-03-08T06:21:35.030Z,988.14
2019-03-08T06:22:35.040Z,988.22
2019-03-08T06:23:35.006Z,988.03
2019-03-08T06:24:34.993Z,988.12
2019-03-08T06:25:34.984Z,988.31
2019-03-08T06:26:34.974Z,988.30
2019-03-08T06:27:35.031Z,988.43
2019-03-08T06:28:35.419Z,988.40
2019-03-08T06:29:34.950Z,988.48
2019-03-08T06:30:34.928Z,988.41
2019-03-08T06:31:34.919Z,988.54
2019-03-08T06:32:34.907Z,988.59
2019-03-08T06:33:34.925Z,988.52
2019-03-08T06:34:34.892Z,988.63
2019-03-08T06:35:34.873Z,988.65
2019-03-08T06:36:34.869Z,988.67
2019-03-08T06:37:34.855Z,988.61
2019-03-08T06:38:34.871Z,988.72
2019-03-08T06:39:34.835Z,988.73
2019-03-08T06:40:34.856Z,988.68
2019-03-08T06:41:34.971Z,988.85
2019-03-08T06:42:34.802Z,988.91
2019-03-08T06:43:34.814Z,988.83
2019-03-08T06:44:34.780Z,988.95
2019-03-08T06:45:34.768Z,989.01
2019-03-08T06:46:34.819Z,988.99
2019-03-08T06:47:34.743Z,988.99
2019-03-08T06:48:34.761Z,989.02
2019-03-08T06:49:34.724Z,988.98
2019-03-08T06:50:34.712Z,988.95
2019-03-08T06:51:34.709Z,989.11
2019-03-08T06:52:34.692Z,989.24
2019-03-08T06:53:34.705Z,989.24
2019-03-08T06:54:34.671Z,989.24
2019-03-08T06:55:34.660Z,989.16
2019-03-08T06:56:34.688Z,989.27
2019-03-08T06:57:34.635Z,989.34
2019-03-08T06:58:34.655Z,989.32
2019-03-08T06:59:34.615Z,989.32
2019-03-08T07:00:34.615Z,989.46
2019-03-08T07:01:34.595Z,989.42
2019-03-08T07:02:34.590Z,989.46
2019-03-08T07:03:34.595Z,989.47
2019-03-08T07:04:34.566Z,989.50
2019-03-08T07:05:34.597Z,989.62
2019-03-08T07:06:34.542Z,989.69
2019-03-08T07:07:34.530Z,989.71
2019-03-08T07:08:34.543Z,989.73
2019-03-08T07:09:34.514Z,989.72
2019-03-08T07:10:34.502Z,989.78
2019-03-08T07:11:34.493Z,989.82
2019-03-08T07:12:34.478Z,989.89
2019-03-08T07:13:34.495Z,989.92
2019-03-08T07:14:34.457Z,990.04
2019-03-08T07:15:34.447Z,990.05
2019-03-08T07:16:34.437Z,990.06
2019-03-08T07:17:34.425Z,990.07
2019-03-08T07:18:34.451Z,990.08
2019-03-08T07:19:40.678Z,990.15
2019-03-08T07:20:35.401Z,990.05
2019-03-08T07:21:34.380Z,990.10
2019-03-08T07:22:34.378Z,990.26
2019-03-08T07:23:34.366Z,990.29
2019-03-08T07:24:34.372Z,990.24
2019-03-08T07:25:34.338Z,990.36
2019-03-08T07:26:34.327Z,990.35
2019-03-08T07:27:34.316Z,990.30
2019-03-08T07:28:34.303Z,990.33
2019-03-08T07:29:34.315Z,990.40
2019-03-08T07:30:34.286Z,990.40
2019-03-08T07:31:34.274Z,990.41
2019-03-08T07:32:34.265Z,990.49
2019-03-08T07:33:34.255Z,990.51
2019-03-08T07:34:34.361Z,990.55
2019-03-08T07:35:34.230Z,990.62
2019-03-08T07:36:34.214Z,990.67
2019-03-08T07:37:34.207Z,990.65
2019-03-08T07:38:34.196Z,990.60
2019-03-08T07:39:34.217Z,990.65
2019-03-08T07:40:34.178Z,990.63
2019-03-08T07:41:34.174Z,990.76
2019-03-08T07:42:34.154Z,990.66
2019-03-08T07:43:34.143Z,990.72
2019-03-08T07:44:34.157Z,990.76
2019-03-08T07:45:34.126Z,990.81
2019-03-08T07:46:34.108Z,990.84
2019-03-08T07:47:34.100Z,990.91
2019-03-08T07:48:34.090Z,990.83
2019-03-08T07:49:34.098Z,990.89
2019-03-08T07:50:34.066Z,990.88
2019-03-08T07:51:34.054Z,990.95
2019-03-08T07:52:34.045Z,990.94
2019-03-08T07:53:34.033Z,991.06
2019-03-08T07:54:34.047Z,991.09
2019-03-08T07:55:34.016Z,991.13
2019-03-08T07:56:34.001Z,990.96
2019-03-08T07:57:33.987Z,991.19
2019-03-08T07:58:33.978Z,991.16
2019-03-08T07:59:33.991Z,991.17
2019-03-08T08:00:33.955Z,991.23
2019-03-08T08:01:33.943Z,991.28
2019-03-08T08:02:33.939Z,991.29
2019-03-08T08:03:33.924Z,991.23
2019-03-08T08:04:33.940Z,991.37
2019-03-08T08:05:33.905Z,991.39
2019-03-08T08:06:33.897Z,991.34
2019-03-08T08:07:33.882Z,991.45
2019-03-08T08:08:33.867Z,991.50
2019-03-08T08:09:33.885Z,991.44
2019-03-08T08:10:33.856Z,991.56
2019-03-08T08:11:33.840Z,991.59
2019-03-08T08:12:33.824Z,991.64
2019-03-08T08:13:33.821Z,991.63
2019-03-08T08:14:39.538Z,991.58
2019-03-08T08:15:34.794Z,991.64
2019-03-08T08:16:33.790Z,991.64
2019-03-08T08:17:33.776Z,991.55
2019-03-08T08:18:33.761Z,991.71
2019-03-08T08:19:33.776Z,991.53
2019-03-08T08:20:33.742Z,991.81
2019-03-08T08:21:33.730Z,991.78
2019-03-08T08:22:33.726Z,991.73
2019-03-08T08:23:34.830Z,991.72
2019-03-08T08:24:33.734Z,991.85
2019-03-08T08:25:36.699Z,991.86
2019-03-08T08:26:33.676Z,991.93
2019-03-08T08:27:33.669Z,991.81
2019-03-08T08:28:33.662Z,991.91
2019-03-08T08:29:35.216Z,991.88
2019-03-08T08:30:33.631Z,991.95
2019-03-08T08:31:33.624Z,991.97
2019-03-08T08:32:33.608Z,991.94
2019-03-08T08:33:33.599Z,991.99
2019-03-08T08:34:33.635Z,992.01
2019-03-08T08:35:33.580Z,991.90
2019-03-08T08:36:33.571Z,992.01
2019-03-08T08:37:33.562Z,991.94
2019-03-08T08:38:33.546Z,992.08
2019-03-08T08:39:33.538Z,992.11
2019-03-08T08:40:33.555Z,992.21
2019-03-08T08:41:33.515Z,992.18
2019-03-08T08:42:33.511Z,992.20
2019-03-08T08:43:33.500Z,992.15
2019-03-08T08:44:33.482Z,992.12
2019-03-08T08:45:33.530Z,992.18
2019-03-08T08:46:33.482Z,992.28
2019-03-08T08:47:33.451Z,992.28
2019-03-08T08:48:33.445Z,992.28
2019-03-08T08:49:33.444Z,992.41
2019-03-08T08:50:33.451Z,992.43
2019-03-08T08:51:33.411Z,992.46
2019-03-08T08:52:33.404Z,992.45
2019-03-08T08:53:33.392Z,992.27
2019-03-08T08:54:33.375Z,992.61
2019-03-08T08:55:33.393Z,992.52
2019-03-08T08:56:33.364Z,992.54
2019-03-08T08:57:33.351Z,992.57
2019-03-08T08:58:33.339Z,992.62
2019-03-08T08:59:33.325Z,992.53
2019-03-08T09:00:33.344Z,992.70
2019-03-08T09:01:33.307Z,992.55
2019-03-08T09:02:33.297Z,992.77
2019-03-08T09:03:33.279Z,992.66
2019-03-08T09:04:33.273Z,992.70
2019-03-08T09:05:33.289Z,992.72
2019-03-08T09:06:33.251Z,992.80
2019-03-08T09:07:33.240Z,992.89
2019-03-08T09:08:33.231Z,992.80
2019-03-08T09:09:33.215Z,992.92
2019-03-08T09:10:33.236Z,992.92
2019-03-08T09:11:33.195Z,992.98
2019-03-08T09:12:33.185Z,992.95
2019-03-08T09:13:33.173Z,992.90
2019-03-08T09:14:33.162Z,993.13
2019-03-08T09:15:33.176Z,992.93
2019-03-08T09:16:33.141Z,992.96
2019-03-08T09:17:33.131Z,992.84
2019-03-08T09:18:33.119Z,993.03
2019-03-08T09:19:33.102Z,993.01
2019-03-08T09:20:33.121Z,992.96
2019-03-08T09:21:33.093Z,992.84
2019-03-08T09:22:33.075Z,993.05
2019-03-08T09:23:33.064Z,993.03
2019-03-08T09:24:33.054Z,993.13
2019-03-08T09:25:33.069Z,993.11
2019-03-08T09:26:33.193Z,993.02
2019-03-08T09:27:33.028Z,993.21
2019-03-08T09:28:33.014Z,993.16
2019-03-08T09:29:41.087Z,993.17
2019-03-08T09:30:34.017Z,993.27
2019-03-08T09:31:33.009Z,993.15
2019-03-08T09:32:32.966Z,993.28
2019-03-08T09:33:32.957Z,993.34
2019-03-08T09:34:32.948Z,993.27
2019-03-08T09:35:32.955Z,993.32
2019-03-08T09:36:32.921Z,993.30
2019-03-08T09:37:32.918Z,993.43
2019-03-08T09:38:32.903Z,993.21
2019-03-08T09:39:32.891Z,993.29
2019-03-08T09:40:32.906Z,993.44
2019-03-08T09:41:32.867Z,993.46
2019-03-08T09:42:32.860Z,993.49
2019-03-08T09:43:32.857Z,993.38
2019-03-08T09:44:32.831Z,993.31
2019-03-08T09:45:32.873Z,993.47
2019-03-08T09:46:32.820Z,993.47
2019-03-08T09:47:32.805Z,993.54
2019-03-08T09:48:32.794Z,993.59
2019-03-08T09:49:32.780Z,993.56
2019-03-08T09:50:32.797Z,993.66
2019-03-08T09:51:32.758Z,993.69
2019-03-08T09:52:32.758Z,993.76
2019-03-08T09:53:32.735Z,993.75
2019-03-08T09:54:32.729Z,993.75
2019-03-08T09:55:32.742Z,993.80
2019-03-08T09:56:32.704Z,993.60
2019-03-08T09:57:32.699Z,993.84
2019-03-08T09:58:32.683Z,993.97
2019-03-08T09:59:32.674Z,993.98
2019-03-08T10:00:32.668Z,994.01
2019-03-08T10:01:32.684Z,993.91
2019-03-08T10:02:32.642Z,993.70
2019-03-08T10:03:32.647Z,993.92
2019-03-08T10:04:32.626Z,993.80
2019-03-08T10:05:32.611Z,994.14
2019-03-08T10:06:32.631Z,993.90
2019-03-08T10:07:32.598Z,993.81
2019-03-08T10:08:32.577Z,993.97
2019-03-08T10:09:32.571Z,994.03
2019-03-08T10:10:32.555Z,994.18
2019-03-08T10:11:32.578Z,994.11
2019-03-08T10:12:32.538Z,994.18
2019-03-08T10:13:32.535Z,994.13
2019-03-08T10:14:32.512Z,994.22
2019-03-08T10:15:32.520Z,994.20
2019-03-08T10:16:32.521Z,994.24
2019-03-08T10:17:32.486Z,994.36
2019-03-08T10:18:32.472Z,994.26
2019-03-08T10:19:32.472Z,994.23
2019-03-08T10:20:32.458Z,994.23
2019-03-08T10:21:32.468Z,994.30
2019-03-08T10:22:32.427Z,994.23
2019-03-08T10:23:32.455Z,994.21
2019-03-08T10:24:32.409Z,994.26
2019-03-08T10:25:32.400Z,994.21
2019-03-08T10:26:32.407Z,994.25
2019-03-08T10:27:38.202Z,994.31
2019-03-08T10:28:33.367Z,994.38
2019-03-08T10:29:32.352Z,994.40
2019-03-08T10:30:32.341Z,994.54
2019-03-08T10:31:32.353Z,994.36
2019-03-08T10:32:37.354Z,994.40
2019-03-08T10:33:33.311Z,994.49
2019-03-08T10:34:32.298Z,994.42
2019-03-08T10:35:32.283Z,994.47
2019-03-08T10:36:32.304Z,994.58
2019-03-08T10:37:32.265Z,994.44
2019-03-08T10:38:32.259Z,994.56
2019-03-08T10:39:32.246Z,994.53
2019-03-08T10:40:32.236Z,994.54
2019-03-08T10:41:32.250Z,994.48
2019-03-08T10:42:32.216Z,994.47
2019-03-08T10:43:32.205Z,994.50
2019-03-08T10:44:32.219Z,994.37
2019-03-08T10:45:32.180Z,994.43
2019-03-08T10:46:32.196Z,994.49
2019-03-08T10:47:32.157Z,994.55
2019-03-08T10:48:32.151Z,994.50
2019-03-08T10:49:32.138Z,994.55
2019-03-08T10:50:32.124Z,994.51
2019-03-08T10:51:32.143Z,994.59
2019-03-08T10:52:32.111Z,994.42
2019-03-08T10:53:32.093Z,994.42
2019-03-08T10:54:32.080Z,994.53
2019-03-08T10:55:32.071Z,994.41
2019-03-08T10:56:32.088Z,994.63
2019-03-08T10:57:32.051Z,994.75
2019-03-08T10:58:32.049Z,994.70
2019-03-08T10:59:32.026Z,994.74
2019-03-08T11:00:32.021Z,994.59
2019-03-08T11:01:32.028Z,994.71
2019-03-08T11:02:31.991Z,994.69
2019-03-08T11:03:31.980Z,994.62
2019-03-08T11:04:31.972Z,994.86
2019-03-08T11:05:31.956Z,994.71
2019-03-08T11:06:31.974Z,994.71
2019-03-08T11:07:31.937Z,994.72
2019-03-08T11:08:31.923Z,994.73
2019-03-08T11:09:31.917Z,994.70
2019-03-08T11:10:31.909Z,994.87
2019-03-08T11:11:31.921Z,994.89
2019-03-08T11:12:31.892Z,994.87
2019-03-08T11:13:31.873Z,994.81
2019-03-08T11:14:31.919Z,994.92
2019-03-08T11:15:31.849Z,995.14
2019-03-08T11:16:31.876Z,994.94
2019-03-08T11:17:31.831Z,994.92
2019-03-08T11:18:31.820Z,994.67
2019-03-08T11:19:31.809Z,994.82
2019-03-08T11:20:31.797Z,994.97
2019-03-08T11:21:31.828Z,995.04
2019-03-08T11:22:31.777Z,995.21
2019-03-08T11:23:31.761Z,994.98
2019-03-08T11:24:31.752Z,994.93
2019-03-08T11:25:35.056Z,994.98
2019-03-08T11:26:31.756Z,994.97
2019-03-08T11:27:31.722Z,995.05
2019-03-08T11:28:31.709Z,995.03
2019-03-08T11:29:31.701Z,994.98
2019-03-08T11:30:31.691Z,995.05
2019-03-08T11:31:31.702Z,995.18
2019-03-08T11:32:31.664Z,995.17
2019-03-08T11:33:31.660Z,995.24
2019-03-08T11:34:31.646Z,995.28
2019-03-08T11:35:31.633Z,995.18
2019-03-08T11:36:31.649Z,995.25
2019-03-08T11:37:31.621Z,995.29
2019-03-08T11:38:31.608Z,995.28
2019-03-08T11:39:31.588Z,995.31
2019-03-08T11:40:31.580Z,995.36
2019-03-08T11:41:31.569Z,995.41
2019-03-08T11:42:31.586Z,995.07
2019-03-08T11:43:31.551Z,995.38
2019-03-08T11:44:31.535Z,995.40
2019-03-08T11:45:31.528Z,995.25
2019-03-08T11:46:31.513Z,995.41
2019-03-08T11:47:31.537Z,994.23
2019-03-08T11:48:31.494Z,995.13
2019-03-08T11:49:31.478Z,995.42
2019-03-08T11:50:31.468Z,995.41
2019-03-08T11:51:31.456Z,995.32
2019-03-08T11:52:31.471Z,995.62
2019-03-08T11:53:31.438Z,995.61
2019-03-08T11:54:40.347Z,995.56
2019-03-08T11:55:32.420Z,995.50
2019-03-08T11:56:31.404Z,995.48
2019-03-08T11:57:31.420Z,995.64
2019-03-08T11:58:31.394Z,995.59
2019-03-08T11:59:31.368Z,995.64
2019-03-08T12:00:31.355Z,995.42
2019-03-08T12:01:31.351Z,995.58
2019-03-08T12:02:37.822Z,995.18
2019-03-08T12:03:32.329Z,995.47
2019-03-08T12:04:31.313Z,995.44
2019-03-08T12:05:31.308Z,995.21
2019-03-08T12:06:31.299Z,995.45
2019-03-08T12:07:31.308Z,995.63
2019-03-08T12:08:31.271Z,995.75
2019-03-08T12:09:31.260Z,995.82
2019-03-08T12:10:31.258Z,995.84
2019-03-08T12:11:31.240Z,995.78
2019-03-08T12:12:31.261Z,995.80
2019-03-08T12:13:32.294Z,995.77
2019-03-08T12:14:31.210Z,995.82
2019-03-08T12:15:31.200Z,995.88
2019-03-08T12:16:31.185Z,995.77
2019-03-08T12:17:31.195Z,995.92
2019-03-08T12:18:31.167Z,995.87
2019-03-08T12:19:31.149Z,995.91
2019-03-08T12:20:31.141Z,995.88
2019-03-08T12:21:31.134Z,995.85
2019-03-08T12:22:31.144Z,995.83
2019-03-08T12:23:31.109Z,995.99
2019-03-08T12:24:31.118Z,995.89
2019-03-08T12:25:31.084Z,995.83
2019-03-08T12:26:31.099Z,995.79
2019-03-08T12:27:31.091Z,995.82
2019-03-08T12:28:31.054Z,995.84